sensor_id;sensor_type;location;lat;lon;timestamp;P1;durP1;ratioP1;P2;durP2;ratioP2
1701;SDS011;848;48.354;10.064;2023-05-19T00:02:00;6.85;;;2.28;;
1701;SDS011;848;48.354;10.064;2023-05-19T00:04:31;7.38;;;2.50;;
1701;SDS011;848;48.354;10.064;2023-05-19T00:06:59;7.50;;;2.40;;
1701;SDS011;848;48.354;10.064;2023-05-19T00:09:28;8.57;;;2.50;;
1701;SDS011;848;48.354;10.064;2023-05-19T00:11:55;7.78;;;2.92;;
1701;SDS011;848;48.354;10.064;2023-05-19T00:14:22;7.45;;;2.67;;
1701;SDS011;848;48.354;10.064;2023-05-19T00:16:50;7.57;;;2.72;;
1701;SDS011;848;48.354;10.064;2023-05-19T00:19:20;8.80;;;3.08;;
1701;SDS011;848;48.354;10.064;2023-05-19T00:21:49;8.07;;;2.95;;
1701;SDS011;848;48.354;10.064;2023-05-19T00:24:16;8.35;;;2.70;;
1701;SDS011;848;48.354;10.064;2023-05-19T00:26:43;10.07;;;2.92;;
1701;SDS011;848;48.354;10.064;2023-05-19T00:29:10;11.18;;;3.63;;
1701;SDS011;848;48.354;10.064;2023-05-19T00:31:37;9.80;;;3.40;;
1701;SDS011;848;48.354;10.064;2023-05-19T00:34:04;7.97;;;3.25;;
1701;SDS011;848;48.354;10.064;2023-05-19T00:36:31;8.18;;;3.03;;
1701;SDS011;848;48.354;10.064;2023-05-19T00:38:59;7.10;;;2.30;;
1701;SDS011;848;48.354;10.064;2023-05-19T00:41:26;10.05;;;3.33;;
1701;SDS011;848;48.354;10.064;2023-05-19T00:43:53;8.07;;;2.85;;
1701;SDS011;848;48.354;10.064;2023-05-19T00:46:20;9.65;;;3.63;;
1701;SDS011;848;48.354;10.064;2023-05-19T00:48:47;9.82;;;3.55;;
1701;SDS011;848;48.354;10.064;2023-05-19T00:51:14;8.93;;;2.92;;
1701;SDS011;848;48.354;10.064;2023-05-19T00:53:42;7.65;;;2.53;;
1701;SDS011;848;48.354;10.064;2023-05-19T00:56:14;11.82;;;4.50;;
1701;SDS011;848;48.354;10.064;2023-05-19T00:58:41;8.82;;;3.28;;
1701;SDS011;848;48.354;10.064;2023-05-19T01:01:09;9.57;;;3.83;;
1701;SDS011;848;48.354;10.064;2023-05-19T01:03:38;12.15;;;4.10;;
1701;SDS011;848;48.354;10.064;2023-05-19T01:06:06;9.13;;;3.70;;
1701;SDS011;848;48.354;10.064;2023-05-19T01:08:34;9.45;;;3.33;;
1701;SDS011;848;48.354;10.064;2023-05-19T01:11:02;13.98;;;3.30;;
1701;SDS011;848;48.354;10.064;2023-05-19T01:13:31;12.75;;;3.63;;
1701;SDS011;848;48.354;10.064;2023-05-19T01:16:00;9.65;;;3.60;;
1701;SDS011;848;48.354;10.064;2023-05-19T01:18:37;12.10;;;3.92;;
1701;SDS011;848;48.354;10.064;2023-05-19T01:27:23;12.30;;;4.07;;
1701;SDS011;848;48.354;10.064;2023-05-19T01:32:57;13.00;;;3.97;;
1701;SDS011;848;48.354;10.064;2023-05-19T01:35:26;10.25;;;3.55;;
1701;SDS011;848;48.354;10.064;2023-05-19T01:37:55;13.57;;;4.18;;
1701;SDS011;848;48.354;10.064;2023-05-19T01:40:25;8.75;;;3.88;;
1701;SDS011;848;48.354;10.064;2023-05-19T01:42:54;13.38;;;3.55;;
1701;SDS011;848;48.354;10.064;2023-05-19T01:45:23;14.15;;;4.15;;
1701;SDS011;848;48.354;10.064;2023-05-19T01:47:54;10.50;;;3.85;;
1701;SDS011;848;48.354;10.064;2023-05-19T01:50:22;9.93;;;3.40;;
1701;SDS011;848;48.354;10.064;2023-05-19T01:52:49;13.68;;;4.25;;
1701;SDS011;848;48.354;10.064;2023-05-19T01:55:16;14.85;;;3.97;;
1701;SDS011;848;48.354;10.064;2023-05-19T01:57:46;13.40;;;4.03;;
1701;SDS011;848;48.354;10.064;2023-05-19T02:00:24;15.13;;;4.13;;
1701;SDS011;848;48.354;10.064;2023-05-19T02:03:00;10.93;;;4.13;;
1701;SDS011;848;48.354;10.064;2023-05-19T02:05:35;8.20;;;3.53;;
1701;SDS011;848;48.354;10.064;2023-05-19T02:08:12;10.95;;;3.70;;
1701;SDS011;848;48.354;10.064;2023-05-19T02:10:53;11.75;;;4.15;;
1701;SDS011;848;48.354;10.064;2023-05-19T02:13:23;9.55;;;3.40;;
1701;SDS011;848;48.354;10.064;2023-05-19T02:15:55;12.27;;;3.78;;
1701;SDS011;848;48.354;10.064;2023-05-19T02:18:28;15.45;;;4.00;;
1701;SDS011;848;48.354;10.064;2023-05-19T02:20:56;11.73;;;3.83;;
1701;SDS011;848;48.354;10.064;2023-05-19T02:23:23;9.80;;;3.45;;
1701;SDS011;848;48.354;10.064;2023-05-19T02:25:49;12.02;;;3.83;;
1701;SDS011;848;48.354;10.064;2023-05-19T02:28:16;9.88;;;4.25;;
1701;SDS011;848;48.354;10.064;2023-05-19T02:30:43;8.93;;;2.92;;
1701;SDS011;848;48.354;10.064;2023-05-19T02:33:10;11.70;;;3.72;;
1701;SDS011;848;48.354;10.064;2023-05-19T02:35:38;10.45;;;3.25;;
1701;SDS011;848;48.354;10.064;2023-05-19T02:38:05;10.18;;;3.50;;
1701;SDS011;848;48.354;10.064;2023-05-19T02:40:32;15.50;;;3.33;;
1701;SDS011;848;48.354;10.064;2023-05-19T02:42:59;10.25;;;3.40;;
1701;SDS011;848;48.354;10.064;2023-05-19T02:45:27;9.23;;;3.08;;
1701;SDS011;848;48.354;10.064;2023-05-19T02:47:54;14.57;;;4.25;;
1701;SDS011;848;48.354;10.064;2023-05-19T02:50:21;9.25;;;3.35;;
1701;SDS011;848;48.354;10.064;2023-05-19T02:52:49;11.05;;;3.42;;
1701;SDS011;848;48.354;10.064;2023-05-19T02:55:17;9.73;;;3.45;;
1701;SDS011;848;48.354;10.064;2023-05-19T02:57:44;11.57;;;4.03;;
1701;SDS011;848;48.354;10.064;2023-05-19T03:00:12;13.80;;;3.97;;
1701;SDS011;848;48.354;10.064;2023-05-19T03:02:39;10.10;;;3.88;;
1701;SDS011;848;48.354;10.064;2023-05-19T03:05:08;10.65;;;4.43;;
1701;SDS011;848;48.354;10.064;2023-05-19T03:07:35;14.27;;;4.63;;
1701;SDS011;848;48.354;10.064;2023-05-19T03:10:04;13.18;;;4.05;;
1701;SDS011;848;48.354;10.064;2023-05-19T03:12:32;12.48;;;4.13;;
1701;SDS011;848;48.354;10.064;2023-05-19T03:14:59;12.50;;;4.35;;
1701;SDS011;848;48.354;10.064;2023-05-19T03:17:26;12.90;;;4.40;;
1701;SDS011;848;48.354;10.064;2023-05-19T03:19:57;10.07;;;3.50;;
1701;SDS011;848;48.354;10.064;2023-05-19T03:22:25;10.35;;;4.10;;
1701;SDS011;848;48.354;10.064;2023-05-19T03:24:52;10.82;;;3.90;;
1701;SDS011;848;48.354;10.064;2023-05-19T03:27:20;8.90;;;3.60;;
1701;SDS011;848;48.354;10.064;2023-05-19T03:29:47;14.82;;;3.92;;
1701;SDS011;848;48.354;10.064;2023-05-19T03:32:14;12.57;;;4.65;;
1701;SDS011;848;48.354;10.064;2023-05-19T03:34:40;10.82;;;3.88;;
1701;SDS011;848;48.354;10.064;2023-05-19T03:37:07;15.60;;;3.88;;
1701;SDS011;848;48.354;10.064;2023-05-19T03:39:36;10.18;;;4.18;;
1701;SDS011;848;48.354;10.064;2023-05-19T03:42:03;13.82;;;4.35;;
1701;SDS011;848;48.354;10.064;2023-05-19T03:44:32;10.40;;;4.60;;
1701;SDS011;848;48.354;10.064;2023-05-19T03:46:59;13.57;;;3.50;;
1701;SDS011;848;48.354;10.064;2023-05-19T03:49:26;10.40;;;3.45;;
1701;SDS011;848;48.354;10.064;2023-05-19T03:51:52;14.07;;;4.75;;
1701;SDS011;848;48.354;10.064;2023-05-19T03:54:19;10.50;;;3.38;;
1701;SDS011;848;48.354;10.064;2023-05-19T03:56:47;12.85;;;4.25;;
1701;SDS011;848;48.354;10.064;2023-05-19T03:59:14;11.73;;;3.47;;
1701;SDS011;848;48.354;10.064;2023-05-19T04:01:42;10.70;;;3.47;;
1701;SDS011;848;48.354;10.064;2023-05-19T04:04:10;12.05;;;4.07;;
1701;SDS011;848;48.354;10.064;2023-05-19T04:06:37;11.70;;;3.30;;
1701;SDS011;848;48.354;10.064;2023-05-19T04:09:09;12.05;;;3.92;;
1701;SDS011;848;48.354;10.064;2023-05-19T04:11:37;12.77;;;4.57;;
1701;SDS011;848;48.354;10.064;2023-05-19T04:14:04;11.45;;;4.07;;
1701;SDS011;848;48.354;10.064;2023-05-19T04:16:31;12.50;;;4.22;;
1701;SDS011;848;48.354;10.064;2023-05-19T04:19:00;17.88;;;3.70;;
1701;SDS011;848;48.354;10.064;2023-05-19T04:21:27;10.98;;;3.97;;
1701;SDS011;848;48.354;10.064;2023-05-19T04:23:54;10.20;;;3.70;;
1701;SDS011;848;48.354;10.064;2023-05-19T04:26:23;12.20;;;3.83;;
1701;SDS011;848;48.354;10.064;2023-05-19T04:28:50;10.05;;;3.67;;
1701;SDS011;848;48.354;10.064;2023-05-19T04:31:17;12.02;;;3.45;;
1701;SDS011;848;48.354;10.064;2023-05-19T04:33:45;11.68;;;4.30;;
1701;SDS011;848;48.354;10.064;2023-05-19T04:36:15;14.00;;;4.15;;
1701;SDS011;848;48.354;10.064;2023-05-19T04:38:45;10.65;;;3.83;;
1701;SDS011;848;48.354;10.064;2023-05-19T04:41:12;10.45;;;4.15;;
1701;SDS011;848;48.354;10.064;2023-05-19T04:43:40;10.60;;;3.55;;
1701;SDS011;848;48.354;10.064;2023-05-19T04:46:08;12.65;;;4.07;;
1701;SDS011;848;48.354;10.064;2023-05-19T04:48:36;15.73;;;3.95;;
1701;SDS011;848;48.354;10.064;2023-05-19T04:51:04;14.32;;;3.65;;
1701;SDS011;848;48.354;10.064;2023-05-19T04:53:32;8.95;;;3.33;;
1701;SDS011;848;48.354;10.064;2023-05-19T04:56:00;11.80;;;4.38;;
1701;SDS011;848;48.354;10.064;2023-05-19T04:58:27;9.43;;;3.33;;
1701;SDS011;848;48.354;10.064;2023-05-19T05:00:54;13.07;;;3.50;;
1701;SDS011;848;48.354;10.064;2023-05-19T05:03:21;19.08;;;3.85;;
1701;SDS011;848;48.354;10.064;2023-05-19T05:05:49;14.52;;;4.00;;
1701;SDS011;848;48.354;10.064;2023-05-19T05:08:16;11.38;;;3.58;;
1701;SDS011;848;48.354;10.064;2023-05-19T05:10:48;9.95;;;3.80;;
1701;SDS011;848;48.354;10.064;2023-05-19T05:13:16;9.95;;;3.70;;
1701;SDS011;848;48.354;10.064;2023-05-19T05:15:44;13.60;;;4.10;;
1701;SDS011;848;48.354;10.064;2023-05-19T05:18:12;9.50;;;3.15;;
1701;SDS011;848;48.354;10.064;2023-05-19T05:20:40;12.02;;;4.00;;
1701;SDS011;848;48.354;10.064;2023-05-19T05:23:08;11.13;;;3.80;;
1701;SDS011;848;48.354;10.064;2023-05-19T05:25:38;10.10;;;3.47;;
1701;SDS011;848;48.354;10.064;2023-05-19T05:28:07;8.55;;;3.15;;
1701;SDS011;848;48.354;10.064;2023-05-19T05:30:35;14.73;;;4.13;;
1701;SDS011;848;48.354;10.064;2023-05-19T05:33:02;12.02;;;4.03;;
1701;SDS011;848;48.354;10.064;2023-05-19T05:35:29;15.30;;;5.00;;
1701;SDS011;848;48.354;10.064;2023-05-19T05:37:55;11.00;;;3.88;;
1701;SDS011;848;48.354;10.064;2023-05-19T05:40:22;17.13;;;4.32;;
1701;SDS011;848;48.354;10.064;2023-05-19T05:42:49;13.82;;;4.03;;
1701;SDS011;848;48.354;10.064;2023-05-19T05:45:17;12.48;;;3.63;;
1701;SDS011;848;48.354;10.064;2023-05-19T05:47:44;13.15;;;4.22;;
1701;SDS011;848;48.354;10.064;2023-05-19T05:50:12;10.05;;;3.20;;
1701;SDS011;848;48.354;10.064;2023-05-19T05:52:40;9.13;;;3.30;;
1701;SDS011;848;48.354;10.064;2023-05-19T05:55:08;11.50;;;4.05;;
1701;SDS011;848;48.354;10.064;2023-05-19T05:57:36;15.98;;;4.00;;
1701;SDS011;848;48.354;10.064;2023-05-19T06:00:06;12.65;;;3.97;;
1701;SDS011;848;48.354;10.064;2023-05-19T06:02:40;10.05;;;3.60;;
1701;SDS011;848;48.354;10.064;2023-05-19T06:05:08;15.98;;;10.05;;
1701;SDS011;848;48.354;10.064;2023-05-19T06:07:36;13.35;;;4.45;;
1701;SDS011;848;48.354;10.064;2023-05-19T06:10:04;13.25;;;4.57;;
1701;SDS011;848;48.354;10.064;2023-05-19T06:12:31;12.88;;;3.95;;
1701;SDS011;848;48.354;10.064;2023-05-19T06:14:59;11.15;;;3.83;;
1701;SDS011;848;48.354;10.064;2023-05-19T06:17:27;15.38;;;4.93;;
1701;SDS011;848;48.354;10.064;2023-05-19T06:19:55;10.32;;;3.47;;
1701;SDS011;848;48.354;10.064;2023-05-19T06:22:22;12.30;;;4.40;;
1701;SDS011;848;48.354;10.064;2023-05-19T06:24:49;12.60;;;4.15;;
1701;SDS011;848;48.354;10.064;2023-05-19T06:27:16;9.10;;;3.95;;
1701;SDS011;848;48.354;10.064;2023-05-19T06:29:42;10.65;;;4.40;;
1701;SDS011;848;48.354;10.064;2023-05-19T06:32:09;9.77;;;3.80;;
1701;SDS011;848;48.354;10.064;2023-05-19T06:34:36;12.77;;;4.57;;
1701;SDS011;848;48.354;10.064;2023-05-19T06:37:05;13.05;;;4.20;;
1701;SDS011;848;48.354;10.064;2023-05-19T06:39:32;13.27;;;4.45;;
1701;SDS011;848;48.354;10.064;2023-05-19T06:41:59;21.25;;;4.88;;
1701;SDS011;848;48.354;10.064;2023-05-19T06:44:26;11.85;;;4.15;;
1701;SDS011;848;48.354;10.064;2023-05-19T06:46:53;9.30;;;3.80;;
1701;SDS011;848;48.354;10.064;2023-05-19T06:49:20;10.02;;;3.88;;
1701;SDS011;848;48.354;10.064;2023-05-19T06:51:47;11.70;;;4.15;;
1701;SDS011;848;48.354;10.064;2023-05-19T06:54:15;11.15;;;4.40;;
1701;SDS011;848;48.354;10.064;2023-05-19T06:56:42;8.98;;;3.10;;
1701;SDS011;848;48.354;10.064;2023-05-19T06:59:09;14.85;;;4.25;;
1701;SDS011;848;48.354;10.064;2023-05-19T07:01:36;12.90;;;4.65;;
1701;SDS011;848;48.354;10.064;2023-05-19T07:04:03;13.45;;;5.55;;
1701;SDS011;848;48.354;10.064;2023-05-19T07:06:30;10.55;;;3.70;;
1701;SDS011;848;48.354;10.064;2023-05-19T07:08:57;18.90;;;4.57;;
1701;SDS011;848;48.354;10.064;2023-05-19T07:11:26;10.50;;;4.35;;
1701;SDS011;848;48.354;10.064;2023-05-19T07:13:53;9.70;;;4.07;;
1701;SDS011;848;48.354;10.064;2023-05-19T07:16:20;9.80;;;4.28;;
1701;SDS011;848;48.354;10.064;2023-05-19T07:18:47;10.95;;;4.30;;
1701;SDS011;848;48.354;10.064;2023-05-19T07:21:14;13.57;;;4.55;;
1701;SDS011;848;48.354;10.064;2023-05-19T07:23:41;12.25;;;4.13;;
1701;SDS011;848;48.354;10.064;2023-05-19T07:26:08;8.30;;;4.07;;
1701;SDS011;848;48.354;10.064;2023-05-19T07:28:36;8.40;;;3.70;;
1701;SDS011;848;48.354;10.064;2023-05-19T07:31:03;9.27;;;3.63;;
1701;SDS011;848;48.354;10.064;2023-05-19T07:33:30;12.90;;;3.97;;
1701;SDS011;848;48.354;10.064;2023-05-19T07:35:57;12.30;;;4.63;;
1701;SDS011;848;48.354;10.064;2023-05-19T07:38:24;9.82;;;3.63;;
1701;SDS011;848;48.354;10.064;2023-05-19T07:40:52;9.60;;;4.47;;
1701;SDS011;848;48.354;10.064;2023-05-19T07:43:19;9.05;;;3.85;;
1701;SDS011;848;48.354;10.064;2023-05-19T07:45:48;10.60;;;4.53;;
1701;SDS011;848;48.354;10.064;2023-05-19T07:48:14;14.23;;;4.57;;
1701;SDS011;848;48.354;10.064;2023-05-19T07:50:42;9.18;;;4.28;;
1701;SDS011;848;48.354;10.064;2023-05-19T07:53:09;11.75;;;3.83;;
1701;SDS011;848;48.354;10.064;2023-05-19T07:55:36;11.80;;;4.70;;
1701;SDS011;848;48.354;10.064;2023-05-19T07:58:03;12.00;;;4.50;;
1701;SDS011;848;48.354;10.064;2023-05-19T08:00:30;9.23;;;4.38;;
1701;SDS011;848;48.354;10.064;2023-05-19T08:02:58;9.90;;;4.35;;
1701;SDS011;848;48.354;10.064;2023-05-19T08:05:25;10.88;;;4.70;;
1701;SDS011;848;48.354;10.064;2023-05-19T08:07:54;11.35;;;5.05;;
1701;SDS011;848;48.354;10.064;2023-05-19T08:10:21;13.07;;;3.88;;
1701;SDS011;848;48.354;10.064;2023-05-19T08:12:48;10.30;;;4.47;;
1701;SDS011;848;48.354;10.064;2023-05-19T08:15:15;10.40;;;4.35;;
1701;SDS011;848;48.354;10.064;2023-05-19T08:17:43;11.18;;;4.22;;
1701;SDS011;848;48.354;10.064;2023-05-19T08:20:11;13.27;;;3.97;;
1701;SDS011;848;48.354;10.064;2023-05-19T08:22:38;9.27;;;4.57;;
1701;SDS011;848;48.354;10.064;2023-05-19T08:25:05;13.93;;;4.10;;
1701;SDS011;848;48.354;10.064;2023-05-19T08:27:33;12.38;;;4.70;;
1701;SDS011;848;48.354;10.064;2023-05-19T08:30:00;10.80;;;4.70;;
1701;SDS011;848;48.354;10.064;2023-05-19T08:32:27;10.25;;;4.68;;
1701;SDS011;848;48.354;10.064;2023-05-19T08:34:54;11.02;;;5.20;;
1701;SDS011;848;48.354;10.064;2023-05-19T08:37:22;11.43;;;5.00;;
1701;SDS011;848;48.354;10.064;2023-05-19T08:39:49;12.45;;;4.22;;
1701;SDS011;848;48.354;10.064;2023-05-19T08:42:16;9.45;;;4.22;;
1701;SDS011;848;48.354;10.064;2023-05-19T08:44:43;9.00;;;4.65;;
1701;SDS011;848;48.354;10.064;2023-05-19T08:47:10;11.48;;;4.43;;
1701;SDS011;848;48.354;10.064;2023-05-19T08:49:41;10.57;;;4.40;;
1701;SDS011;848;48.354;10.064;2023-05-19T08:52:12;11.60;;;5.55;;
1701;SDS011;848;48.354;10.064;2023-05-19T08:54:49;11.43;;;4.45;;
1701;SDS011;848;48.354;10.064;2023-05-19T08:57:21;10.75;;;5.05;;
1701;SDS011;848;48.354;10.064;2023-05-19T08:59:50;15.13;;;5.30;;
1701;SDS011;848;48.354;10.064;2023-05-19T09:02:19;12.05;;;4.22;;
1701;SDS011;848;48.354;10.064;2023-05-19T09:05:06;9.63;;;5.18;;
1701;SDS011;848;48.354;10.064;2023-05-19T09:07:35;9.35;;;4.80;;
1701;SDS011;848;48.354;10.064;2023-05-19T09:10:04;9.98;;;4.20;;
1701;SDS011;848;48.354;10.064;2023-05-19T09:12:32;11.48;;;4.28;;
1701;SDS011;848;48.354;10.064;2023-05-19T09:14:59;13.85;;;5.88;;
1701;SDS011;848;48.354;10.064;2023-05-19T09:17:28;10.25;;;4.97;;
1701;SDS011;848;48.354;10.064;2023-05-19T09:19:55;12.25;;;4.90;;
1701;SDS011;848;48.354;10.064;2023-05-19T09:22:28;13.23;;;5.20;;
1701;SDS011;848;48.354;10.064;2023-05-19T09:24:55;12.88;;;5.25;;
1701;SDS011;848;48.354;10.064;2023-05-19T09:27:24;12.60;;;5.40;;
1701;SDS011;848;48.354;10.064;2023-05-19T09:29:50;11.70;;;5.28;;
1701;SDS011;848;48.354;10.064;2023-05-19T09:32:23;9.85;;;3.90;;
1701;SDS011;848;48.354;10.064;2023-05-19T09:34:51;9.20;;;4.05;;
1701;SDS011;848;48.354;10.064;2023-05-19T09:37:21;10.90;;;4.35;;
1701;SDS011;848;48.354;10.064;2023-05-19T09:39:48;11.27;;;5.55;;
1701;SDS011;848;48.354;10.064;2023-05-19T09:42:24;10.05;;;4.63;;
1701;SDS011;848;48.354;10.064;2023-05-19T09:44:57;11.20;;;5.03;;
1701;SDS011;848;48.354;10.064;2023-05-19T09:47:26;9.70;;;3.88;;
1701;SDS011;848;48.354;10.064;2023-05-19T09:49:53;8.93;;;4.00;;
1701;SDS011;848;48.354;10.064;2023-05-19T09:52:20;12.60;;;5.80;;
1701;SDS011;848;48.354;10.064;2023-05-19T09:54:48;8.95;;;4.15;;
1701;SDS011;848;48.354;10.064;2023-05-19T09:57:16;10.60;;;4.95;;
1701;SDS011;848;48.354;10.064;2023-05-19T09:59:44;10.35;;;4.25;;
1701;SDS011;848;48.354;10.064;2023-05-19T10:02:12;14.57;;;5.60;;
1701;SDS011;848;48.354;10.064;2023-05-19T10:04:42;10.88;;;5.25;;
1701;SDS011;848;48.354;10.064;2023-05-19T10:07:11;11.77;;;4.78;;
1701;SDS011;848;48.354;10.064;2023-05-19T10:09:41;11.20;;;4.90;;
1701;SDS011;848;48.354;10.064;2023-05-19T10:12:10;10.98;;;5.00;;
1701;SDS011;848;48.354;10.064;2023-05-19T10:14:39;9.98;;;4.63;;
1701;SDS011;848;48.354;10.064;2023-05-19T10:17:07;13.00;;;5.45;;
1701;SDS011;848;48.354;10.064;2023-05-19T10:19:36;10.43;;;4.60;;
1701;SDS011;848;48.354;10.064;2023-05-19T10:22:03;10.70;;;4.93;;
1701;SDS011;848;48.354;10.064;2023-05-19T10:24:30;9.23;;;4.25;;
1701;SDS011;848;48.354;10.064;2023-05-19T10:26:59;10.30;;;4.50;;
1701;SDS011;848;48.354;10.064;2023-05-19T10:29:29;13.38;;;7.07;;
1701;SDS011;848;48.354;10.064;2023-05-19T10:31:59;9.60;;;4.68;;
1701;SDS011;848;48.354;10.064;2023-05-19T10:34:47;10.50;;;4.70;;
1701;SDS011;848;48.354;10.064;2023-05-19T10:37:36;11.70;;;4.75;;
1701;SDS011;848;48.354;10.064;2023-05-19T10:40:11;12.35;;;4.93;;
1701;SDS011;848;48.354;10.064;2023-05-19T10:42:48;10.20;;;4.28;;
1701;SDS011;848;48.354;10.064;2023-05-19T10:45:22;11.75;;;5.15;;
1701;SDS011;848;48.354;10.064;2023-05-19T10:47:55;12.82;;;5.15;;
1701;SDS011;848;48.354;10.064;2023-05-19T10:50:23;8.85;;;4.63;;
1701;SDS011;848;48.354;10.064;2023-05-19T10:52:54;10.45;;;4.65;;
1701;SDS011;848;48.354;10.064;2023-05-19T10:58:10;13.23;;;4.90;;
1701;SDS011;848;48.354;10.064;2023-05-19T11:00:37;9.48;;;5.35;;
1701;SDS011;848;48.354;10.064;2023-05-19T11:03:11;10.70;;;5.13;;
1701;SDS011;848;48.354;10.064;2023-05-19T11:05:40;14.88;;;5.03;;
1701;SDS011;848;48.354;10.064;2023-05-19T11:08:09;11.52;;;5.88;;
1701;SDS011;848;48.354;10.064;2023-05-19T11:10:37;11.70;;;5.57;;
1701;SDS011;848;48.354;10.064;2023-05-19T11:13:04;12.02;;;5.03;;
1701;SDS011;848;48.354;10.064;2023-05-19T11:15:41;10.77;;;5.10;;
1701;SDS011;848;48.354;10.064;2023-05-19T11:18:10;13.13;;;6.35;;
1701;SDS011;848;48.354;10.064;2023-05-19T11:20:45;11.25;;;5.57;;
1701;SDS011;848;48.354;10.064;2023-05-19T11:23:24;15.60;;;6.80;;
1701;SDS011;848;48.354;10.064;2023-05-19T11:25:51;13.23;;;6.10;;
1701;SDS011;848;48.354;10.064;2023-05-19T11:28:19;14.30;;;6.57;;
1701;SDS011;848;48.354;10.064;2023-05-19T11:30:49;11.98;;;6.35;;
1701;SDS011;848;48.354;10.064;2023-05-19T11:33:19;11.13;;;5.00;;
1701;SDS011;848;48.354;10.064;2023-05-19T11:35:52;12.00;;;5.82;;
1701;SDS011;848;48.354;10.064;2023-05-19T11:38:21;10.73;;;4.80;;
1701;SDS011;848;48.354;10.064;2023-05-19T11:40:51;14.98;;;6.60;;
1701;SDS011;848;48.354;10.064;2023-05-19T11:43:21;17.30;;;8.30;;
1701;SDS011;848;48.354;10.064;2023-05-19T11:45:48;16.20;;;7.35;;
1701;SDS011;848;48.354;10.064;2023-05-19T11:48:15;14.43;;;7.05;;
1701;SDS011;848;48.354;10.064;2023-05-19T11:50:45;16.20;;;5.60;;
1701;SDS011;848;48.354;10.064;2023-05-19T11:53:14;11.18;;;5.30;;
1701;SDS011;848;48.354;10.064;2023-05-19T11:55:41;13.00;;;6.45;;
1701;SDS011;848;48.354;10.064;2023-05-19T11:58:10;11.50;;;5.82;;
1701;SDS011;848;48.354;10.064;2023-05-19T12:00:38;10.73;;;5.30;;
1701;SDS011;848;48.354;10.064;2023-05-19T12:03:06;13.80;;;6.45;;
1701;SDS011;848;48.354;10.064;2023-05-19T12:05:35;12.13;;;5.85;;
1701;SDS011;848;48.354;10.064;2023-05-19T12:08:03;10.38;;;4.75;;
1701;SDS011;848;48.354;10.064;2023-05-19T12:10:32;11.80;;;5.85;;
1701;SDS011;848;48.354;10.064;2023-05-19T12:13:00;13.18;;;6.22;;
1701;SDS011;848;48.354;10.064;2023-05-19T12:15:28;11.85;;;6.00;;
1701;SDS011;848;48.354;10.064;2023-05-19T12:17:58;10.90;;;5.85;;
1701;SDS011;848;48.354;10.064;2023-05-19T12:20:27;12.00;;;5.82;;
1701;SDS011;848;48.354;10.064;2023-05-19T12:22:56;10.85;;;5.28;;
1701;SDS011;848;48.354;10.064;2023-05-19T12:25:24;11.00;;;4.60;;
1701;SDS011;848;48.354;10.064;2023-05-19T12:27:55;11.45;;;6.75;;
1701;SDS011;848;48.354;10.064;2023-05-19T12:30:25;15.05;;;6.07;;
1701;SDS011;848;48.354;10.064;2023-05-19T12:32:53;12.80;;;6.55;;
1701;SDS011;848;48.354;10.064;2023-05-19T12:35:26;14.65;;;5.82;;
1701;SDS011;848;48.354;10.064;2023-05-19T12:37:53;13.20;;;5.45;;
1701;SDS011;848;48.354;10.064;2023-05-19T12:40:21;13.10;;;6.35;;
1701;SDS011;848;48.354;10.064;2023-05-19T12:42:56;15.75;;;6.07;;
1701;SDS011;848;48.354;10.064;2023-05-19T12:45:24;10.95;;;6.60;;
1701;SDS011;848;48.354;10.064;2023-05-19T12:47:52;13.15;;;6.63;;
1701;SDS011;848;48.354;10.064;2023-05-19T12:50:19;11.77;;;6.38;;
1701;SDS011;848;48.354;10.064;2023-05-19T12:52:47;12.95;;;7.20;;
1701;SDS011;848;48.354;10.064;2023-05-19T12:55:16;11.35;;;5.68;;
1701;SDS011;848;48.354;10.064;2023-05-19T12:57:47;14.40;;;8.10;;
1701;SDS011;848;48.354;10.064;2023-05-19T13:00:20;13.18;;;6.13;;
1701;SDS011;848;48.354;10.064;2023-05-19T13:02:59;11.93;;;6.45;;
1701;SDS011;848;48.354;10.064;2023-05-19T13:05:29;10.93;;;6.03;;
1701;SDS011;848;48.354;10.064;2023-05-19T13:07:58;11.98;;;5.88;;
1701;SDS011;848;48.354;10.064;2023-05-19T13:10:27;10.27;;;5.72;;
1701;SDS011;848;48.354;10.064;2023-05-19T13:12:56;12.57;;;6.32;;
1701;SDS011;848;48.354;10.064;2023-05-19T13:15:27;9.50;;;5.38;;
1701;SDS011;848;48.354;10.064;2023-05-19T13:17:59;9.85;;;4.97;;
1701;SDS011;848;48.354;10.064;2023-05-19T13:20:27;11.00;;;4.90;;
1701;SDS011;848;48.354;10.064;2023-05-19T13:22:54;10.25;;;5.25;;
1701;SDS011;848;48.354;10.064;2023-05-19T13:25:21;13.35;;;5.88;;
1701;SDS011;848;48.354;10.064;2023-05-19T13:27:48;11.27;;;5.57;;
1701;SDS011;848;48.354;10.064;2023-05-19T13:30:16;10.57;;;5.30;;
1701;SDS011;848;48.354;10.064;2023-05-19T13:32:44;12.07;;;5.93;;
1701;SDS011;848;48.354;10.064;2023-05-19T13:35:11;11.60;;;5.68;;
1701;SDS011;848;48.354;10.064;2023-05-19T13:37:39;16.83;;;6.05;;
1701;SDS011;848;48.354;10.064;2023-05-19T13:40:07;12.27;;;6.55;;
1701;SDS011;848;48.354;10.064;2023-05-19T13:42:35;13.05;;;6.53;;
1701;SDS011;848;48.354;10.064;2023-05-19T13:45:02;10.45;;;5.10;;
1701;SDS011;848;48.354;10.064;2023-05-19T13:47:30;11.05;;;6.07;;
1701;SDS011;848;48.354;10.064;2023-05-19T13:49:58;11.98;;;4.97;;
1701;SDS011;848;48.354;10.064;2023-05-19T13:52:25;16.60;;;6.35;;
1701;SDS011;848;48.354;10.064;2023-05-19T13:54:52;11.75;;;5.65;;
1701;SDS011;848;48.354;10.064;2023-05-19T13:57:20;11.70;;;5.72;;
1701;SDS011;848;48.354;10.064;2023-05-19T13:59:48;16.58;;;6.78;;
1701;SDS011;848;48.354;10.064;2023-05-19T14:02:14;13.02;;;6.15;;
1701;SDS011;848;48.354;10.064;2023-05-19T14:04:41;12.00;;;6.40;;
1701;SDS011;848;48.354;10.064;2023-05-19T14:07:10;12.57;;;6.00;;
1701;SDS011;848;48.354;10.064;2023-05-19T14:09:36;10.95;;;6.05;;
1701;SDS011;848;48.354;10.064;2023-05-19T14:12:04;12.80;;;5.75;;
1701;SDS011;848;48.354;10.064;2023-05-19T14:14:31;12.20;;;5.97;;
1701;SDS011;848;48.354;10.064;2023-05-19T14:16:58;16.58;;;6.20;;
1701;SDS011;848;48.354;10.064;2023-05-19T14:19:25;13.40;;;6.55;;
1701;SDS011;848;48.354;10.064;2023-05-19T14:21:54;13.80;;;6.60;;
1701;SDS011;848;48.354;10.064;2023-05-19T14:24:22;12.07;;;6.65;;
1701;SDS011;848;48.354;10.064;2023-05-19T14:26:49;12.45;;;6.40;;
1701;SDS011;848;48.354;10.064;2023-05-19T14:29:16;11.80;;;6.22;;
1701;SDS011;848;48.354;10.064;2023-05-19T14:31:43;13.27;;;5.80;;
1701;SDS011;848;48.354;10.064;2023-05-19T14:34:10;10.85;;;6.10;;
1701;SDS011;848;48.354;10.064;2023-05-19T14:36:41;13.27;;;6.22;;
1701;SDS011;848;48.354;10.064;2023-05-19T14:39:08;12.82;;;6.18;;
1701;SDS011;848;48.354;10.064;2023-05-19T14:41:37;11.57;;;6.78;;
1701;SDS011;848;48.354;10.064;2023-05-19T14:44:04;12.27;;;5.82;;
1701;SDS011;848;48.354;10.064;2023-05-19T14:46:31;9.60;;;5.60;;
1701;SDS011;848;48.354;10.064;2023-05-19T14:48:58;11.82;;;6.00;;
1701;SDS011;848;48.354;10.064;2023-05-19T14:51:25;14.15;;;7.38;;
1701;SDS011;848;48.354;10.064;2023-05-19T14:53:52;12.00;;;6.00;;
1701;SDS011;848;48.354;10.064;2023-05-19T14:56:18;11.23;;;6.07;;
1701;SDS011;848;48.354;10.064;2023-05-19T14:58:47;15.10;;;7.10;;
1701;SDS011;848;48.354;10.064;2023-05-19T15:01:14;11.43;;;6.35;;
1701;SDS011;848;48.354;10.064;2023-05-19T15:03:41;14.90;;;7.22;;
1701;SDS011;848;48.354;10.064;2023-05-19T15:06:07;11.68;;;6.80;;
1701;SDS011;848;48.354;10.064;2023-05-19T15:08:35;12.60;;;6.40;;
1701;SDS011;848;48.354;10.064;2023-05-19T15:11:03;12.43;;;6.40;;
1701;SDS011;848;48.354;10.064;2023-05-19T15:13:30;12.00;;;6.70;;
1701;SDS011;848;48.354;10.064;2023-05-19T15:15:59;12.68;;;6.40;;
1701;SDS011;848;48.354;10.064;2023-05-19T15:18:26;12.30;;;6.90;;
1701;SDS011;848;48.354;10.064;2023-05-19T15:20:53;11.63;;;6.53;;
1701;SDS011;848;48.354;10.064;2023-05-19T15:23:20;12.77;;;6.20;;
1701;SDS011;848;48.354;10.064;2023-05-19T15:25:47;9.90;;;5.80;;